Red Owl, South Dakota
Current Conditions -  °F | °C
As of 1:58 AM on Monday 22 Dec 2014 (Local Time) from KRCA Reporting Station
Few Clouds Few Clouds  
Wind Chill: -3°   Ceiling: Unl
Heat Index:   Visibility: 10mi
Dew Point: -1°   Wind: 30mph
Humidity: 74%   Direction: 330°NNW
Pressure: 29.5"   Gusts: 35mph
Location:  44.7°N, 102.55°W
Report Text: KRCA 220858Z 33026G30KT 10SM FEW180 04/M01 A2950 RMK AO2A PK WND 32033/12 SLP002 60000 T00371006 52004 $
Loading
Personal Weather Stations






























Interactive Weather Map New forecast layout! Learn more

10-Day Weather Forecast

Advertisements
Track Severe Weather on mobile